sensor_id;sensor_type;location;lat;lon;timestamp;pressure;altitude;pressure_sealevel;temperature;humidity
5380;BME280;2713;42.680;23.310;2023-09-12T00:00:08;95217.69;;;20.65;51.73
5380;BME280;2713;42.680;23.310;2023-09-12T00:02:38;95225.72;;;20.70;52.16
5380;BME280;2713;42.680;23.310;2023-09-12T00:05:05;95219.78;;;20.63;51.83
5380;BME280;2713;42.680;23.310;2023-09-12T00:07:32;95233.56;;;20.37;52.56
5380;BME280;2713;42.680;23.310;2023-09-12T00:09:58;95227.84;;;20.29;53.05
5380;BME280;2713;42.680;23.310;2023-09-12T00:12:27;95229.31;;;20.24;53.55
5380;BME280;2713;42.680;23.310;2023-09-12T00:14:54;95221.91;;;20.10;53.65
5380;BME280;2713;42.680;23.310;2023-09-12T00:17:21;95232.75;;;20.25;53.20
5380;BME280;2713;42.680;23.310;2023-09-12T00:19:47;95223.47;;;20.22;53.25
5380;BME280;2713;42.680;23.310;2023-09-12T00:22:14;95229.47;;;20.30;53.61
5380;BME280;2713;42.680;23.310;2023-09-12T00:24:41;95229.78;;;20.33;53.31
5380;BME280;2713;42.680;23.310;2023-09-12T00:27:08;95237.13;;;20.31;53.21
5380;BME280;2713;42.680;23.310;2023-09-12T00:29:36;95238.78;;;20.09;53.44
5380;BME280;2713;42.680;23.310;2023-09-12T00:32:03;95236.16;;;20.09;53.53
5380;BME280;2713;42.680;23.310;2023-09-12T00:34:30;95239.66;;;20.26;53.30
5380;BME280;2713;42.680;23.310;2023-09-12T00:36:57;95225.78;;;20.31;53.22
5380;BME280;2713;42.680;23.310;2023-09-12T00:39:25;95222.56;;;20.29;53.43
5380;BME280;2713;42.680;23.310;2023-09-12T00:41:52;95238.03;;;20.37;53.12
5380;BME280;2713;42.680;23.310;2023-09-12T00:44:18;95241.56;;;20.42;52.90
5380;BME280;2713;42.680;23.310;2023-09-12T00:46:48;95244.50;;;20.29;52.83
5380;BME280;2713;42.680;23.310;2023-09-12T00:49:17;95243.69;;;20.29;53.09
5380;BME280;2713;42.680;23.310;2023-09-12T00:51:44;95240.81;;;20.30;52.25
5380;BME280;2713;42.680;23.310;2023-09-12T00:54:12;95245.53;;;20.28;52.68
5380;BME280;2713;42.680;23.310;2023-09-12T00:56:39;95248.16;;;20.28;52.65
5380;BME280;2713;42.680;23.310;2023-09-12T00:59:07;95241.16;;;20.10;52.54
5380;BME280;2713;42.680;23.310;2023-09-12T01:01:34;95255.22;;;19.99;52.50
5380;BME280;2713;42.680;23.310;2023-09-12T01:04:03;95262.22;;;19.94;52.81
5380;BME280;2713;42.680;23.310;2023-09-12T01:06:31;95259.03;;;19.80;52.95
5380;BME280;2713;42.680;23.310;2023-09-12T01:09:00;95255.22;;;19.76;52.61
5380;BME280;2713;42.680;23.310;2023-09-12T01:11:28;95250.41;;;19.85;52.33
5380;BME280;2713;42.680;23.310;2023-09-12T01:13:54;95261.19;;;19.83;52.77
5380;BME280;2713;42.680;23.310;2023-09-12T01:16:21;95244.38;;;19.72;52.55
5380;BME280;2713;42.680;23.310;2023-09-12T01:18:48;95252.06;;;19.51;53.29
5380;BME280;2713;42.680;23.310;2023-09-12T01:21:40;95262.59;;;19.74;52.91
5380;BME280;2713;42.680;23.310;2023-09-12T01:24:43;95259.38;;;19.72;53.31
5380;BME280;2713;42.680;23.310;2023-09-12T01:27:26;95261.22;;;19.71;52.95
5380;BME280;2713;42.680;23.310;2023-09-12T01:29:56;95256.41;;;19.57;53.46
5380;BME280;2713;42.680;23.310;2023-09-12T01:32:24;95267.75;;;19.69;53.59
5380;BME280;2713;42.680;23.310;2023-09-12T01:34:51;95258.69;;;19.77;53.04
5380;BME280;2713;42.680;23.310;2023-09-12T01:37:17;95273.00;;;19.81;52.93
5380;BME280;2713;42.680;23.310;2023-09-12T01:39:44;95264.31;;;19.68;52.97
5380;BME280;2713;42.680;23.310;2023-09-12T01:42:14;95258.59;;;19.48;53.40
5380;BME280;2713;42.680;23.310;2023-09-12T01:44:44;95262.44;;;19.22;54.32
5380;BME280;2713;42.680;23.310;2023-09-12T01:47:13;95262.31;;;19.29;54.03
5380;BME280;2713;42.680;23.310;2023-09-12T01:49:42;95270.63;;;19.44;53.76
5380;BME280;2713;42.680;23.310;2023-09-12T01:52:10;95272.41;;;19.32;54.01
5380;BME280;2713;42.680;23.310;2023-09-12T01:54:38;95261.75;;;19.27;53.84
5380;BME280;2713;42.680;23.310;2023-09-12T01:57:07;95271.13;;;19.11;54.45
5380;BME280;2713;42.680;23.310;2023-09-12T01:59:34;95276.13;;;19.01;54.93
5380;BME280;2713;42.680;23.310;2023-09-12T02:02:03;95273.41;;;19.08;54.96
5380;BME280;2713;42.680;23.310;2023-09-12T02:04:30;95272.63;;;19.07;54.85
5380;BME280;2713;42.680;23.310;2023-09-12T02:06:57;95271.81;;;19.07;55.06
5380;BME280;2713;42.680;23.310;2023-09-12T02:09:24;95272.16;;;19.10;55.00
5380;BME280;2713;42.680;23.310;2023-09-12T02:11:51;95269.72;;;18.97;55.29
5380;BME280;2713;42.680;23.310;2023-09-12T02:14:18;95277.53;;;19.04;54.84
5380;BME280;2713;42.680;23.310;2023-09-12T02:16:45;95276.97;;;19.13;54.79
5380;BME280;2713;42.680;23.310;2023-09-12T02:19:13;95271.00;;;19.18;54.69
5380;BME280;2713;42.680;23.310;2023-09-12T02:21:39;95276.16;;;19.13;54.73
5380;BME280;2713;42.680;23.310;2023-09-12T02:24:07;95271.34;;;19.10;54.84
5380;BME280;2713;42.680;23.310;2023-09-12T02:26:34;95272.06;;;19.17;54.66
5380;BME280;2713;42.680;23.310;2023-09-12T02:29:02;95269.03;;;19.02;55.15
5380;BME280;2713;42.680;23.310;2023-09-12T02:31:31;95277.53;;;19.04;55.17
5380;BME280;2713;42.680;23.310;2023-09-12T02:33:58;95261.34;;;18.89;55.56
5380;BME280;2713;42.680;23.310;2023-09-12T02:36:26;95271.09;;;19.00;55.21
5380;BME280;2713;42.680;23.310;2023-09-12T02:38:54;95275.69;;;19.04;55.40
5380;BME280;2713;42.680;23.310;2023-09-12T02:41:21;95279.47;;;18.97;55.68
5380;BME280;2713;42.680;23.310;2023-09-12T02:43:47;95256.38;;;18.69;55.86
5380;BME280;2713;42.680;23.310;2023-09-12T02:46:14;95257.75;;;18.71;55.72
5380;BME280;2713;42.680;23.310;2023-09-12T02:48:41;95283.38;;;19.06;55.32
5380;BME280;2713;42.680;23.310;2023-09-12T02:51:08;95283.16;;;19.07;55.28
5380;BME280;2713;42.680;23.310;2023-09-12T02:53:36;95282.34;;;19.07;55.38
5380;BME280;2713;42.680;23.310;2023-09-12T02:56:03;95291.41;;;19.11;55.55
5380;BME280;2713;42.680;23.310;2023-09-12T02:58:30;95274.56;;;19.12;55.16
5380;BME280;2713;42.680;23.310;2023-09-12T03:00:56;95272.63;;;19.19;55.32
5380;BME280;2713;42.680;23.310;2023-09-12T03:03:24;95277.09;;;19.07;55.27
5380;BME280;2713;42.680;23.310;2023-09-12T03:05:57;95282.31;;;18.95;55.70
5380;BME280;2713;42.680;23.310;2023-09-12T03:08:24;95279.94;;;19.05;55.30
5380;BME280;2713;42.680;23.310;2023-09-12T03:10:54;95277.19;;;19.00;55.62
5380;BME280;2713;42.680;23.310;2023-09-12T03:13:23;95274.97;;;18.97;55.64
5380;BME280;2713;42.680;23.310;2023-09-12T03:15:50;95275.31;;;19.01;55.91
5380;BME280;2713;42.680;23.310;2023-09-12T03:18:17;95278.25;;;19.11;55.93
5380;BME280;2713;42.680;23.310;2023-09-12T03:20:43;95285.66;;;19.02;56.01
5380;BME280;2713;42.680;23.310;2023-09-12T03:23:10;95281.59;;;18.88;56.39
5380;BME280;2713;42.680;23.310;2023-09-12T03:25:37;95265.53;;;18.78;56.02
5380;BME280;2713;42.680;23.310;2023-09-12T03:28:05;95287.38;;;18.97;56.01
5380;BME280;2713;42.680;23.310;2023-09-12T03:30:33;95280.22;;;18.86;56.55
5380;BME280;2713;42.680;23.310;2023-09-12T03:33:00;95286.56;;;18.96;56.45
5380;BME280;2713;42.680;23.310;2023-09-12T03:35:28;95291.16;;;18.71;57.05
5380;BME280;2713;42.680;23.310;2023-09-12T03:37:54;95286.66;;;18.60;57.28
5380;BME280;2713;42.680;23.310;2023-09-12T03:40:21;95292.03;;;18.83;56.89
5380;BME280;2713;42.680;23.310;2023-09-12T03:42:48;95287.72;;;18.70;57.22
5380;BME280;2713;42.680;23.310;2023-09-12T03:45:16;95293.25;;;18.81;56.91
5380;BME280;2713;42.680;23.310;2023-09-12T03:47:43;95292.59;;;18.85;56.58
5380;BME280;2713;42.680;23.310;2023-09-12T03:50:12;95293.72;;;18.78;57.03
5380;BME280;2713;42.680;23.310;2023-09-12T03:52:40;95296.50;;;18.83;57.18
5380;BME280;2713;42.680;23.310;2023-09-12T03:55:07;95294.31;;;18.80;56.99
5380;BME280;2713;42.680;23.310;2023-09-12T03:57:34;95298.97;;;18.78;57.47
5380;BME280;2713;42.680;23.310;2023-09-12T04:00:01;95276.47;;;18.63;57.23
5380;BME280;2713;42.680;23.310;2023-09-12T04:02:40;95295.31;;;18.79;57.11
5380;BME280;2713;42.680;23.310;2023-09-12T04:05:08;95294.06;;;18.81;57.04
5380;BME280;2713;42.680;23.310;2023-09-12T04:07:36;95294.78;;;18.58;57.88
5380;BME280;2713;42.680;23.310;2023-09-12T04:10:03;95292.81;;;18.54;57.74
5380;BME280;2713;42.680;23.310;2023-09-12T04:12:30;95294.13;;;18.63;57.70
5380;BME280;2713;42.680;23.310;2023-09-12T04:14:56;95300.91;;;18.70;57.40
5380;BME280;2713;42.680;23.310;2023-09-12T04:17:23;95296.94;;;18.80;56.98
5380;BME280;2713;42.680;23.310;2023-09-12T04:19:51;95299.31;;;18.69;57.31
5380;BME280;2713;42.680;23.310;2023-09-12T04:22:18;95301.25;;;18.74;57.27
5380;BME280;2713;42.680;23.310;2023-09-12T04:24:45;95302.09;;;18.56;56.86
5380;BME280;2713;42.680;23.310;2023-09-12T04:27:12;95290.81;;;18.49;57.26
5380;BME280;2713;42.680;23.310;2023-09-12T04:29:39;95296.25;;;18.54;57.18
5380;BME280;2713;42.680;23.310;2023-09-12T04:32:06;95299.47;;;18.56;56.41
5380;BME280;2713;42.680;23.310;2023-09-12T04:34:33;95301.78;;;18.46;57.15
5380;BME280;2713;42.680;23.310;2023-09-12T04:37:02;95305.63;;;18.50;56.95
5380;BME280;2713;42.680;23.310;2023-09-12T04:39:31;95299.03;;;18.41;57.37
5380;BME280;2713;42.680;23.310;2023-09-12T04:41:58;95304.66;;;18.45;57.03
5380;BME280;2713;42.680;23.310;2023-09-12T04:44:25;95297.78;;;18.44;57.37
5380;BME280;2713;42.680;23.310;2023-09-12T04:46:52;95306.28;;;18.46;57.79
5380;BME280;2713;42.680;23.310;2023-09-12T04:49:18;95310.50;;;18.65;57.42
5380;BME280;2713;42.680;23.310;2023-09-12T04:51:46;95307.25;;;18.51;57.92
5380;BME280;2713;42.680;23.310;2023-09-12T04:54:14;95302.09;;;18.56;57.79
5380;BME280;2713;42.680;23.310;2023-09-12T04:56:40;95308.63;;;18.54;58.07
5380;BME280;2713;42.680;23.310;2023-09-12T04:59:07;95311.75;;;18.62;57.87
5380;BME280;2713;42.680;23.310;2023-09-12T05:01:34;95310.41;;;18.71;57.55
5380;BME280;2713;42.680;23.310;2023-09-12T05:04:01;95310.41;;;18.71;57.43
5380;BME280;2713;42.680;23.310;2023-09-12T05:06:29;95312.91;;;18.48;57.82
5380;BME280;2713;42.680;23.310;2023-09-12T05:08:56;95314.75;;;18.48;58.23
5380;BME280;2713;42.680;23.310;2023-09-12T05:11:24;95316.28;;;18.37;58.55
5380;BME280;2713;42.680;23.310;2023-09-12T05:13:51;95318.03;;;18.43;58.21
5380;BME280;2713;42.680;23.310;2023-09-12T05:16:18;95309.34;;;18.61;57.83
5380;BME280;2713;42.680;23.310;2023-09-12T05:18:45;95316.56;;;18.47;57.81
5380;BME280;2713;42.680;23.310;2023-09-12T05:21:14;95319.66;;;18.62;57.33
5380;BME280;2713;42.680;23.310;2023-09-12T05:23:41;95315.22;;;18.74;57.44
5380;BME280;2713;42.680;23.310;2023-09-12T05:26:08;95321.66;;;18.79;57.32
5380;BME280;2713;42.680;23.310;2023-09-12T05:28:37;95313.31;;;18.82;56.68
5380;BME280;2713;42.680;23.310;2023-09-12T05:31:04;95313.00;;;18.90;56.37
5380;BME280;2713;42.680;23.310;2023-09-12T05:33:32;95317.84;;;19.04;55.96
5380;BME280;2713;42.680;23.310;2023-09-12T05:36:00;95321.28;;;19.05;55.62
5380;BME280;2713;42.680;23.310;2023-09-12T05:38:28;95321.09;;;19.18;55.16
5380;BME280;2713;42.680;23.310;2023-09-12T05:40:55;95325.22;;;19.25;54.84
5380;BME280;2713;42.680;23.310;2023-09-12T05:43:23;95326.19;;;19.31;54.84
5380;BME280;2713;42.680;23.310;2023-09-12T05:45:52;95306.78;;;19.14;54.89
5380;BME280;2713;42.680;23.310;2023-09-12T05:48:19;95326.69;;;19.63;54.03
5380;BME280;2713;42.680;23.310;2023-09-12T05:50:46;95326.34;;;20.06;53.09
5380;BME280;2713;42.680;23.310;2023-09-12T05:53:12;95323.00;;;20.73;51.33
5380;BME280;2713;42.680;23.310;2023-09-12T05:55:40;95330.13;;;21.46;49.70
5380;BME280;2713;42.680;23.310;2023-09-12T05:58:07;95320.00;;;21.77;47.87
5380;BME280;2713;42.680;23.310;2023-09-12T06:00:34;95328.66;;;21.89;47.16
5380;BME280;2713;42.680;23.310;2023-09-12T06:03:03;95324.16;;;21.89;47.01
5380;BME280;2713;42.680;23.310;2023-09-12T06:05:30;95323.13;;;22.07;45.97
5380;BME280;2713;42.680;23.310;2023-09-12T06:07:57;95320.94;;;22.42;45.51
5380;BME280;2713;42.680;23.310;2023-09-12T06:10:24;95323.72;;;22.52;44.87
5380;BME280;2713;42.680;23.310;2023-09-12T06:12:50;95316.06;;;22.78;44.51
5380;BME280;2713;42.680;23.310;2023-09-12T06:15:17;95310.59;;;23.11;44.02
5380;BME280;2713;42.680;23.310;2023-09-12T06:17:44;95319.06;;;23.40;43.10
5380;BME280;2713;42.680;23.310;2023-09-12T06:20:12;95325.88;;;23.89;42.32
5380;BME280;2713;42.680;23.310;2023-09-12T06:22:39;95324.78;;;23.85;42.22
5380;BME280;2713;42.680;23.310;2023-09-12T06:25:06;95319.34;;;23.70;42.34
5380;BME280;2713;42.680;23.310;2023-09-12T06:27:33;95328.56;;;24.36;41.29
5380;BME280;2713;42.680;23.310;2023-09-12T06:30:00;95338.19;;;24.52;40.44
5380;BME280;2713;42.680;23.310;2023-09-12T06:32:27;95336.13;;;24.12;40.39
5380;BME280;2713;42.680;23.310;2023-09-12T06:34:54;95346.31;;;23.89;41.22
5380;BME280;2713;42.680;23.310;2023-09-12T06:37:22;95339.28;;;24.09;40.43
5380;BME280;2713;42.680;23.310;2023-09-12T06:39:49;95339.19;;;24.31;40.05
5380;BME280;2713;42.680;23.310;2023-09-12T06:42:17;95339.31;;;24.61;39.69
5380;BME280;2713;42.680;23.310;2023-09-12T06:44:43;95330.19;;;25.14;38.06
5380;BME280;2713;42.680;23.310;2023-09-12T06:47:10;95338.16;;;25.14;38.32
5380;BME280;2713;42.680;23.310;2023-09-12T06:49:38;95338.66;;;24.96;38.60
5380;BME280;2713;42.680;23.310;2023-09-12T06:52:05;95342.16;;;25.07;38.45
5380;BME280;2713;42.680;23.310;2023-09-12T06:54:34;95344.50;;;24.88;39.45
5380;BME280;2713;42.680;23.310;2023-09-12T06:57:01;95345.81;;;24.86;39.27
5380;BME280;2713;42.680;23.310;2023-09-12T06:59:28;95345.16;;;25.41;38.37
5380;BME280;2713;42.680;23.310;2023-09-12T07:01:55;95343.31;;;25.71;37.11
5380;BME280;2713;42.680;23.310;2023-09-12T07:04:21;95333.47;;;25.92;36.92
5380;BME280;2713;42.680;23.310;2023-09-12T07:06:48;95338.22;;;26.05;36.84
5380;BME280;2713;42.680;23.310;2023-09-12T07:09:16;95339.06;;;25.96;37.13
5380;BME280;2713;42.680;23.310;2023-09-12T07:11:45;95323.31;;;26.04;36.65
5380;BME280;2713;42.680;23.310;2023-09-12T07:14:12;95339.16;;;26.65;35.68
5380;BME280;2713;42.680;23.310;2023-09-12T07:16:39;95340.94;;;26.90;35.09
5380;BME280;2713;42.680;23.310;2023-09-12T07:19:06;95338.25;;;26.95;34.97
5380;BME280;2713;42.680;23.310;2023-09-12T07:21:32;95336.97;;;26.77;35.66
5380;BME280;2713;42.680;23.310;2023-09-12T07:23:59;95340.50;;;26.67;35.93
5380;BME280;2713;42.680;23.310;2023-09-12T07:26:26;95337.53;;;26.74;35.39
5380;BME280;2713;42.680;23.310;2023-09-12T07:28:54;95341.66;;;26.36;35.68
5380;BME280;2713;42.680;23.310;2023-09-12T07:31:21;95344.34;;;26.21;35.33
5380;BME280;2713;42.680;23.310;2023-09-12T07:33:48;95340.19;;;26.74;34.26
5380;BME280;2713;42.680;23.310;2023-09-12T07:36:15;95347.09;;;26.75;34.50
5380;BME280;2713;42.680;23.310;2023-09-12T07:38:41;95330.72;;;27.07;34.54
5380;BME280;2713;42.680;23.310;2023-09-12T07:41:10;95335.38;;;27.30;34.26
5380;BME280;2713;42.680;23.310;2023-09-12T07:43:38;95329.34;;;27.14;35.10
5380;BME280;2713;42.680;23.310;2023-09-12T07:46:07;95327.38;;;27.30;34.43
5380;BME280;2713;42.680;23.310;2023-09-12T07:48:33;95325.81;;;27.24;34.08
5380;BME280;2713;42.680;23.310;2023-09-12T07:51:00;95329.34;;;27.09;34.66
5380;BME280;2713;42.680;23.310;2023-09-12T07:53:28;95326.97;;;27.57;34.47
5380;BME280;2713;42.680;23.310;2023-09-12T07:55:59;95321.00;;;27.65;33.65
5380;BME280;2713;42.680;23.310;2023-09-12T07:58:28;95327.06;;;27.76;33.21
5380;BME280;2713;42.680;23.310;2023-09-12T08:00:55;95325.75;;;28.02;32.62
5380;BME280;2713;42.680;23.310;2023-09-12T08:03:23;95326.22;;;28.38;31.51
5380;BME280;2713;42.680;23.310;2023-09-12T08:05:55;95323.66;;;28.51;32.04
5380;BME280;2713;42.680;23.310;2023-09-12T08:08:22;95328.31;;;28.69;32.03
5380;BME280;2713;42.680;23.310;2023-09-12T08:10:49;95330.50;;;28.62;31.60
5380;BME280;2713;42.680;23.310;2023-09-12T08:13:15;95327.97;;;28.47;30.91
5380;BME280;2713;42.680;23.310;2023-09-12T08:15:42;95328.81;;;28.19;31.54
5380;BME280;2713;42.680;23.310;2023-09-12T08:18:09;95314.91;;;27.88;31.73
5380;BME280;2713;42.680;23.310;2023-09-12T08:20:38;95327.28;;;28.13;32.15
5380;BME280;2713;42.680;23.310;2023-09-12T08:23:04;95326.78;;;28.35;31.66
5380;BME280;2713;42.680;23.310;2023-09-12T08:25:31;95328.91;;;28.61;31.65
5380;BME280;2713;42.680;23.310;2023-09-12T08:27:58;95327.47;;;28.93;31.47
5380;BME280;2713;42.680;23.310;2023-09-12T08:30:25;95319.38;;;28.50;31.37
5380;BME280;2713;42.680;23.310;2023-09-12T08:32:52;95318.25;;;28.04;31.46
5380;BME280;2713;42.680;23.310;2023-09-12T08:35:19;95319.59;;;28.06;31.54
5380;BME280;2713;42.680;23.310;2023-09-12T08:37:47;95319.00;;;28.38;30.99
5380;BME280;2713;42.680;23.310;2023-09-12T08:40:14;95315.38;;;28.77;30.58
5380;BME280;2713;42.680;23.310;2023-09-12T08:42:42;95308.00;;;29.06;29.98
5380;BME280;2713;42.680;23.310;2023-09-12T08:45:12;95309.22;;;28.95;30.39
5380;BME280;2713;42.680;23.310;2023-09-12T08:47:41;95302.09;;;28.90;30.24
5380;BME280;2713;42.680;23.310;2023-09-12T08:50:10;95302.31;;;28.94;30.20
5380;BME280;2713;42.680;23.310;2023-09-12T08:52:38;95301.94;;;29.19;29.75
5380;BME280;2713;42.680;23.310;2023-09-12T08:55:07;95298.16;;;29.20;29.64
5380;BME280;2713;42.680;23.310;2023-09-12T08:57:36;95309.31;;;28.90;29.41
5380;BME280;2713;42.680;23.310;2023-09-12T09:00:04;95309.84;;;29.10;29.20
5380;BME280;2713;42.680;23.310;2023-09-12T09:02:32;95296.66;;;29.33;29.45
5380;BME280;2713;42.680;23.310;2023-09-12T09:04:59;95305.06;;;29.26;29.23
5380;BME280;2713;42.680;23.310;2023-09-12T09:07:28;95308.56;;;29.21;29.63
5380;BME280;2713;42.680;23.310;2023-09-12T09:09:55;95296.97;;;29.31;28.74
5380;BME280;2713;42.680;23.310;2023-09-12T09:12:24;95304.44;;;29.34;29.25
5380;BME280;2713;42.680;23.310;2023-09-12T09:14:53;95297.78;;;29.64;28.60
5380;BME280;2713;42.680;23.310;2023-09-12T09:17:20;95297.41;;;29.38;28.77
5380;BME280;2713;42.680;23.310;2023-09-12T09:19:47;95299.47;;;29.23;29.49
5380;BME280;2713;42.680;23.310;2023-09-12T09:22:13;95284.19;;;29.04;29.86
5380;BME280;2713;42.680;23.310;2023-09-12T09:24:40;95290.72;;;29.17;29.25
5380;BME280;2713;42.680;23.310;2023-09-12T09:27:07;95291.41;;;29.28;28.91
5380;BME280;2713;42.680;23.310;2023-09-12T09:29:47;95291.53;;;29.36;28.62
5380;BME280;2713;42.680;23.310;2023-09-12T09:32:18;95284.94;;;29.47;29.19
5380;BME280;2713;42.680;23.310;2023-09-12T09:34:47;95279.25;;;29.67;28.57
5380;BME280;2713;42.680;23.310;2023-09-12T09:37:14;95275.59;;;29.45;28.30
5380;BME280;2713;42.680;23.310;2023-09-12T09:39:44;95272.94;;;29.26;29.33
5380;BME280;2713;42.680;23.310;2023-09-12T09:42:13;95273.50;;;29.42;28.80
5380;BME280;2713;42.680;23.310;2023-09-12T09:44:40;95265.34;;;29.65;29.24
5380;BME280;2713;42.680;23.310;2023-09-12T09:47:08;95275.25;;;29.97;28.08
5380;BME280;2713;42.680;23.310;2023-09-12T09:49:35;95271.50;;;30.12;28.15
5380;BME280;2713;42.680;23.310;2023-09-12T09:52:04;95262.97;;;30.10;28.67
5380;BME280;2713;42.680;23.310;2023-09-12T09:54:33;95257.41;;;29.93;27.97
5380;BME280;2713;42.680;23.310;2023-09-12T09:57:00;95263.22;;;29.62;30.42
5380;BME280;2713;42.680;23.310;2023-09-12T09:59:28;95238.91;;;29.27;28.78
5380;BME280;2713;42.680;23.310;2023-09-12T10:01:57;95257.84;;;29.49;28.62
5380;BME280;2713;42.680;23.310;2023-09-12T10:04:27;95252.63;;;29.90;28.39
5380;BME280;2713;42.680;23.310;2023-09-12T10:06:56;95250.06;;;30.12;27.76
5380;BME280;2713;42.680;23.310;2023-09-12T10:09:26;95252.84;;;30.07;28.25
5380;BME280;2713;42.680;23.310;2023-09-12T10:11:55;95250.66;;;30.09;27.98
5380;BME280;2713;42.680;23.310;2023-09-12T10:14:22;95242.91;;;30.21;27.72
5380;BME280;2713;42.680;23.310;2023-09-12T10:16:50;95230.78;;;30.10;27.79
5380;BME280;2713;42.680;23.310;2023-09-12T10:19:21;95233.16;;;30.25;28.15
5380;BME280;2713;42.680;23.310;2023-09-12T10:21:54;95231.88;;;30.23;29.01
5380;BME280;2713;42.680;23.310;2023-09-12T10:24:27;95221.16;;;30.09;28.08
5380;BME280;2713;42.680;23.310;2023-09-12T10:26:55;95226.91;;;29.56;28.25
5380;BME280;2713;42.680;23.310;2023-09-12T10:29:22;95223.13;;;29.57;29.10
5380;BME280;2713;42.680;23.310;2023-09-12T10:31:49;95220.47;;;29.90;28.90
5380;BME280;2713;42.680;23.310;2023-09-12T10:34:18;95214.78;;;29.91;28.23
5380;BME280;2713;42.680;23.310;2023-09-12T10:36:45;95220.03;;;29.83;28.46
5380;BME280;2713;42.680;23.310;2023-09-12T10:39:14;95216.47;;;30.14;27.81
5380;BME280;2713;42.680;23.310;2023-09-12T10:41:41;95208.81;;;30.08;28.29
5380;BME280;2713;42.680;23.310;2023-09-12T10:44:11;95212.41;;;30.03;28.68
5380;BME280;2713;42.680;23.310;2023-09-12T10:46:39;95196.34;;;29.90;27.91
5380;BME280;2713;42.680;23.310;2023-09-12T10:49:07;95207.53;;;30.05;27.62
5380;BME280;2713;42.680;23.310;2023-09-12T10:51:38;95198.69;;;30.05;28.07
5380;BME280;2713;42.680;23.310;2023-09-12T10:54:06;95203.72;;;29.79;27.84
5380;BME280;2713;42.680;23.310;2023-09-12T10:56:34;95204.72;;;29.83;28.09
5380;BME280;2713;42.680;23.310;2023-09-12T10:59:19;95200.94;;;29.70;28.48
5380;BME280;2713;42.680;23.310;2023-09-12T11:01:50;95193.75;;;29.52;28.59
5380;BME280;2713;42.680;23.310;2023-09-12T11:04:31;95190.38;;;29.47;29.03
5380;BME280;2713;42.680;23.310;2023-09-12T11:07:00;95191.00;;;29.57;28.79
5380;BME280;2713;42.680;23.310;2023-09-12T11:09:27;95172.03;;;29.54;28.48
5380;BME280;2713;42.680;23.310;2023-09-12T11:12:02;95186.19;;;29.87;29.50
5380;BME280;2713;42.680;23.310;2023-09-12T11:14:30;95184.91;;;29.98;28.88
5380;BME280;2713;42.680;23.310;2023-09-12T11:17:27;95172.56;;;30.10;28.40
5380;BME280;2713;42.680;23.310;2023-09-12T11:19:54;95176.56;;;29.99;28.05
5380;BME280;2713;42.680;23.310;2023-09-12T11:22:36;95178.47;;;29.66;28.75
5380;BME280;2713;42.680;23.310;2023-09-12T11:25:05;95169.81;;;29.42;28.89
5380;BME280;2713;42.680;23.310;2023-09-12T11:28:01;95176.19;;;29.60;28.15
5380;BME280;2713;42.680;23.310;2023-09-12T11:30:29;95173.94;;;29.81;29.36
5380;BME280;2713;42.680;23.310;2023-09-12T11:32:57;95171.69;;;29.88;28.46
5380;BME280;2713;42.680;23.310;2023-09-12T11:35:25;95169.97;;;29.78;28.20
5380;BME280;2713;42.680;23.310;2023-09-12T11:37:53;95158.81;;;29.90;28.72
5380;BME280;2713;42.680;23.310;2023-09-12T11:40:23;95165.03;;;29.85;28.99
5380;BME280;2713;42.680;23.310;2023-09-12T11:42:52;95165.03;;;29.85;28.82
5380;BME280;2713;42.680;23.310;2023-09-12T11:45:20;95152.31;;;29.91;28.22
5380;BME280;2713;42.680;23.310;2023-09-12T11:47:48;95153.28;;;29.81;28.16
5380;BME280;2713;42.680;23.310;2023-09-12T11:50:28;95151.94;;;29.84;28.49
5380;BME280;2713;42.680;23.310;2023-09-12T11:53:00;95144.75;;;29.65;28.08
5380;BME280;2713;42.680;23.310;2023-09-12T11:55:31;95143.66;;;29.66;27.94
5380;BME280;2713;42.680;23.310;2023-09-12T11:58:00;95144.16;;;29.68;28.03
5380;BME280;2713;42.680;23.310;2023-09-12T12:00:27;95143.94;;;29.51;28.30
5380;BME280;2713;42.680;23.310;2023-09-12T12:02:54;95144.16;;;29.68;28.82
5380;BME280;2713;42.680;23.310;2023-09-12T12:05:22;95143.94;;;29.51;28.24
5380;BME280;2713;42.680;23.310;2023-09-12T12:07:49;95142.91;;;29.34;28.77
5380;BME280;2713;42.680;23.310;2023-09-12T12:10:17;95134.50;;;29.40;28.53
5380;BME280;2713;42.680;23.310;2023-09-12T12:12:44;95139.09;;;29.21;28.46
5380;BME280;2713;42.680;23.310;2023-09-12T12:15:13;95137.88;;;29.13;28.28
5380;BME280;2713;42.680;23.310;2023-09-12T12:17:41;95146.84;;;28.90;28.96
5380;BME280;2713;42.680;23.310;2023-09-12T12:20:09;95134.66;;;28.98;28.73
5380;BME280;2713;42.680;23.310;2023-09-12T12:22:37;95136.19;;;29.04;28.88
5380;BME280;2713;42.680;23.310;2023-09-12T12:25:07;95131.25;;;29.11;28.67
5380;BME280;2713;42.680;23.310;2023-09-12T12:27:36;95129.06;;;29.13;28.84
5380;BME280;2713;42.680;23.310;2023-09-12T12:30:05;95126.97;;;29.10;28.41
5380;BME280;2713;42.680;23.310;2023-09-12T12:32:36;95131.25;;;29.11;28.53
5380;BME280;2713;42.680;23.310;2023-09-12T12:35:03;95128.16;;;29.04;28.99
5380;BME280;2713;42.680;23.310;2023-09-12T12:37:30;95122.97;;;28.94;28.71
5380;BME280;2713;42.680;23.310;2023-09-12T12:39:58;95122.22;;;29.07;29.72
5380;BME280;2713;42.680;23.310;2023-09-12T12:42:25;95121.41;;;29.06;29.40
5380;BME280;2713;42.680;23.310;2023-09-12T12:44:53;95119.75;;;29.10;28.15
5380;BME280;2713;42.680;23.310;2023-09-12T12:47:21;95125.13;;;28.92;28.48
5380;BME280;2713;42.680;23.310;2023-09-12T12:49:52;95116.00;;;28.93;28.50
5380;BME280;2713;42.680;23.310;2023-09-12T12:52:22;95115.28;;;28.87;28.39
5380;BME280;2713;42.680;23.310;2023-09-12T12:54:50;95106.69;;;28.90;28.69
5380;BME280;2713;42.680;23.310;2023-09-12T12:57:19;95106.53;;;29.00;28.76
5380;BME280;2713;42.680;23.310;2023-09-12T12:59:46;95102.53;;;28.98;29.12
5380;BME280;2713;42.680;23.310;2023-09-12T13:02:13;95097.91;;;29.03;28.84
5380;BME280;2713;42.680;23.310;2023-09-12T13:04:40;95107.28;;;29.01;28.60
5380;BME280;2713;42.680;23.310;2023-09-12T13:07:08;95106.56;;;29.14;28.62
5380;BME280;2713;42.680;23.310;2023-09-12T13:09:36;95102.94;;;29.05;28.59
5380;BME280;2713;42.680;23.310;2023-09-12T13:12:05;95107.16;;;29.11;28.85
5380;BME280;2713;42.680;23.310;2023-09-12T13:14:32;95101.81;;;29.25;28.47